| time (UTC) | temp F | wind direction | speed knots | gust knots | rain 1hr in | rain 24hr in | rain mn in | humidity % | barometer mb |
| 20260505170152 | 70 | 195 | 9.6 | 16.5 | 0.00 | 0.09 | 0.09 | 86 | 1009.9 |
| 20260505165652 | 70 | 167 | 6.1 | 13.9 | 0.00 | 0.09 | 0.09 | 87 | 1009.8 |
| 20260505165148 | 69 | 160 | 6.1 | 13.0 | 0.00 | 0.09 | 0.09 | 87 | 1009.8 |
| 20260505164643 | 70 | 206 | 4.3 | 12.2 | 0.00 | 0.09 | 0.09 | 85 | 1010.1 |
| 20260505164141 | 70 | 149 | 13.0 | 15.6 | 0.00 | 0.09 | 0.09 | 85 | 1009.9 |
| 20260505163639 | 70 | 170 | 6.1 | 11.3 | 0.00 | 0.09 | 0.09 | 86 | 1010.0 |
| 20260505163137 | 69 | 164 | 7.0 | 13.0 | 0.00 | 0.09 | 0.09 | 86 | 1009.9 |
| 20260505162634 | 70 | 191 | 9.6 | 15.6 | 0.00 | 0.09 | 0.09 | 86 | 1009.7 |
| 20260505162132 | 70 | 209 | 8.7 | 17.4 | 0.00 | 0.09 | 0.09 | 84 | 1009.8 |
| 20260505161629 | 70 | 168 | 6.1 | 12.2 | 0.00 | 0.09 | 0.09 | 85 | 1009.7 |
| 20260505161126 | 71 | 171 | 6.1 | 11.3 | 0.00 | 0.09 | 0.09 | 83 | 1009.8 |
| 20260505160624 | 71 | 186 | 6.1 | 13.0 | 0.00 | 0.09 | 0.09 | 85 | 1009.4 |
| 20260505160121 | 71 | 180 | 7.8 | 12.2 | 0.00 | 0.09 | 0.09 | 85 | 1009.2 |
| 20260505153100 | 70 | 191 | 10.4 | 10.4 | 0.00 | 0.09 | 0.09 | 86 | 1009.1 |
| 20260505152557 | 70 | 180 | 5.2 | 12.2 | 0.00 | 0.09 | 0.09 | 86 | 1009.1 |
| 20260505152053 | 69 | 174 | 13.0 | 14.8 | 0.00 | 0.09 | 0.09 | 86 | 1009.2 |
| 20260505151548 | 68 | 182 | 8.7 | 13.0 | 0.00 | 0.09 | 0.09 | 87 | 1009.1 |
| 20260505151046 | 68 | 178 | 10.4 | 14.8 | 0.00 | 0.09 | 0.09 | 87 | 1009.0 |
| 20260505150542 | 68 | 161 | 2.6 | 8.7 | 0.00 | 0.09 | 0.09 | 88 | 1009.2 |
| 20260505140507 | 66 | 190 | 3.5 | 5.2 | 0.00 | 0.09 | 0.09 | 90 | 1009.9 |
| 20260505124920 | 62 | 175 | 1.7 | 4.3 | 0.00 | 0.09 | 0.09 | 95 | 1010.2 |
| 20260505124417 | 62 | 88 | 3.5 | 9.6 | 0.00 | 0.09 | 0.09 | 95 | 1010.2 |
| 20260505123913 | 62 | 93 | 6.1 | 10.4 | 0.00 | 0.09 | 0.09 | 95 | 1010.1 |
| 20260505123410 | 61 | 118 | 2.6 | 7.8 | 0.00 | 0.09 | 0.09 | 95 | 1010.3 |
| 20260505122906 | 61 | 64 | 4.3 | 11.3 | 0.00 | 0.09 | 0.09 | 95 | 1010.3 |
| 20260505122404 | 61 | 113 | 6.1 | 10.4 | 0.00 | 0.09 | 0.09 | 95 | 1010.0 |
| 20260505121900 | 61 | 104 | 7.8 | 9.6 | 0.00 | 0.09 | 0.09 | 96 | 1010.2 |
| 20260505121357 | 61 | 126 | 7.8 | 12.2 | 0.00 | 0.09 | 0.09 | 96 | 1010.1 |
| 20260505120853 | 61 | 81 | 8.7 | 12.2 | 0.00 | 0.09 | 0.09 | 96 | 1010.2 |
| 20260505120349 | 61 | 89 | 12.2 | 13.0 | 0.00 | 0.09 | 0.09 | 95 | 1010.1 |
| 20260505115848 | 61 | 102 | 7.8 | 10.4 | 0.00 | 0.09 | 0.09 | 95 | 1009.9 |
| 20260505115345 | 61 | 100 | 5.2 | 15.6 | 0.00 | 0.09 | 0.09 | 95 | 1010.0 |
| 20260505114843 | 61 | 112 | 7.8 | 11.3 | 0.00 | 0.09 | 0.09 | 96 | 1010.2 |
| 20260505114339 | 61 | 97 | 5.2 | 10.4 | 0.00 | 0.09 | 0.09 | 96 | 1009.8 |
| 20260505113836 | 61 | 96 | 6.1 | 12.2 | 0.00 | 0.09 | 0.09 | 96 | 1010.1 |
| 20260505113333 | 61 | 64 | 5.2 | 10.4 | 0.00 | 0.09 | 0.09 | 97 | 1010.1 |
| 20260505112828 | 61 | 89 | 5.2 | 10.4 | 0.00 | 0.09 | 0.09 | 96 | 1010.2 |
| 20260505112326 | 61 | 51 | 1.7 | 3.5 | 0.00 | 0.09 | 0.09 | 96 | 1010.1 |
| 20260505111821 | 61 | 76 | 4.3 | 7.8 | 0.00 | 0.09 | 0.09 | 97 | 1010.4 |
| 20260505111317 | 61 | 36 | 2.6 | 4.3 | 0.00 | 0.09 | 0.09 | 97 | 1010.0 |
| 20260505110813 | 61 | 81 | 2.6 | 7.0 | 0.00 | 0.09 | 0.09 | 97 | 1010.0 |
| 20260505110311 | 61 | 61 | 6.1 | 10.4 | 0.00 | 0.09 | 0.09 | 98 | 1010.0 |
| 20260505101745 | 61 | 84 | 3.5 | 7.8 | 0.00 | 0.09 | 0.09 | 98 | 1010.0 |
| 20260505101241 | 61 | 54 | 1.7 | 7.8 | 0.00 | 0.09 | 0.09 | 98 | 1010.1 |
| 20260505100737 | 61 | 65 | 3.5 | 8.7 | 0.02 | 0.09 | 0.09 | 98 | 1010.1 |
| 20260505100234 | 61 | 69 | 2.6 | 5.2 | 0.02 | 0.09 | 0.09 | 98 | 1010.1 |
| 20260505095729 | 61 | 28 | 1.7 | 7.0 | 0.00 | 0.09 | 0.09 | 98 | 1010.4 |
| 20260505095228 | 61 | 57 | 4.3 | 7.8 | 0.00 | 0.09 | 0.09 | 98 | 1010.5 |
| 20260505094723 | 61 | 69 | 5.2 | 9.6 | 0.00 | 0.09 | 0.09 | 98 | 1010.3 |
| 20260505094220 | 61 | 111 | 2.6 | 9.6 | 0.00 | 0.09 | 0.09 | 98 | 1010.5 |
| 20260505093716 | 61 | 72 | 4.3 | 5.2 | 0.00 | 0.09 | 0.09 | 98 | 1010.4 |
| 20260505093214 | 61 | 95 | 0.9 | 3.5 | 0.00 | 0.09 | 0.09 | 99 | 1010.3 |
| 20260505092710 | 61 | 34 | 2.6 | 6.1 | 0.00 | 0.09 | 0.09 | 99 | 1010.3 |
| 20260505092209 | 61 | 11 | 0.0 | 3.5 | 0.00 | 0.09 | 0.09 | 99 | 1010.4 |
| 20260505091706 | 61 | 48 | 2.6 | 3.5 | 0.00 | 0.09 | 0.09 | 99 | 1010.4 |
| 20260505091204 | 61 | 17 | 0.9 | 3.5 | 0.00 | 0.09 | 0.09 | 99 | 1010.4 |
| 20260505090701 | 61 | 81 | 0.0 | 2.6 | 0.02 | 0.09 | 0.09 | 99 | 1010.6 |
| 20260505090159 | 61 | 4 | 1.7 | 3.5 | 0.02 | 0.09 | 0.09 | 98 | 1010.3 |
| 20260505085656 | 61 | 322 | 0.9 | 2.6 | 0.02 | 0.08 | 0.08 | 98 | 1010.1 |
| 20260505085154 | 61 | 44 | 1.7 | 3.5 | 0.02 | 0.08 | 0.08 | 98 | 1010.1 |
| 20260505084651 | 61 | 57 | 1.7 | 5.2 | 0.00 | 0.08 | 0.08 | 98 | 1010.3 |
| 20260505084150 | 61 | 43 | 1.7 | 4.3 | 0.00 | 0.08 | 0.08 | 97 | 1010.4 |
| 20260505083647 | 61 | 8 | 1.7 | 4.3 | 0.00 | 0.08 | 0.08 | 97 | 1010.7 |
| 20260505083143 | 61 | 344 | 2.6 | 6.1 | 0.09 | 0.08 | 0.08 | 97 | 1010.7 |
| 20260505082639 | 62 | 350 | 3.5 | 5.2 | 0.21 | 0.08 | 0.08 | 95 | 1010.5 |
| 20260505082137 | 62 | 60 | 3.5 | 6.1 | 0.17 | 0.06 | 0.06 | 94 | 1010.2 |
| 20260505081632 | 63 | 349 | 3.5 | 14.8 | 0.00 | 0.04 | 0.04 | 91 | 1010.9 |
| 20260505081130 | 64 | 327 | 5.2 | 10.4 | 0.00 | 0.04 | 0.04 | 89 | 1011.1 |
| 20260505080627 | 64 | 301 | 0.0 | 7.0 | 0.00 | 0.04 | 0.04 | 88 | 1009.8 |
| 20260505080123 | 63 | 28 | 3.5 | 6.1 | 0.00 | 0.04 | 0.04 | 88 | 1009.6 |
| 20260505075619 | 63 | 343 | 3.5 | 12.2 | 0.00 | 0.04 | 0.04 | 89 | 1009.5 |
| 20260505075116 | 65 | 355 | 4.3 | 15.6 | 0.00 | 0.04 | 0.04 | 85 | 1009.8 |
| 20260505074613 | 65 | 335 | 3.5 | 4.3 | 0.00 | 0.04 | 0.04 | 84 | 1008.4 |
| 20260505074110 | 65 | 173 | 3.5 | 8.7 | 0.00 | 0.04 | 0.04 | 83 | 1008.0 |
| 20260505073608 | 64 | 191 | 1.7 | 7.0 | 0.00 | 0.04 | 0.04 | 85 | 1007.7 |
| 20260505073106 | 64 | 135 | 6.1 | 12.2 | 0.00 | 0.04 | 0.04 | 85 | 1007.2 |
| 20260505072601 | 64 | 113 | 9.6 | 13.9 | 0.00 | 0.04 | 0.04 | 84 | 1007.9 |
| 20260505072058 | 65 | 97 | 11.3 | 11.3 | 0.00 | 0.04 | 0.04 | 81 | 1008.2 |
| 20260505071553 | 65 | 125 | 8.7 | 11.3 | 0.00 | 0.04 | 0.04 | 82 | 1008.2 |
| 20260505071051 | 65 | 166 | 7.0 | 15.6 | 0.00 | 0.04 | 0.04 | 81 | 1008.7 |
| 20260505070548 | 64 | 97 | 10.4 | 13.9 | 0.00 | 0.04 | 0.04 | 84 | 1009.0 |
| 20260505070044 | 65 | 173 | 4.3 | 5.2 | 0.02 | 0.04 | 0.04 | 83 | 1010.0 |
| 20260505065540 | 65 | 316 | 1.7 | 3.5 | 0.02 | 0.04 | 0.04 | 82 | 1010.7 |
| 20260505065037 | 65 | 345 | 2.6 | 4.3 | 0.00 | 0.03 | 0.03 | 82 | 1010.5 |
| 20260505064534 | 66 | 291 | 0.9 | 1.7 | 0.00 | 0.03 | 0.03 | 79 | 1010.2 |
| 20260505064033 | 66 | 226 | 0.9 | 5.2 | 0.00 | 0.03 | 0.03 | 78 | 1009.7 |
| 20260505063529 | 66 | 181 | 8.7 | 12.2 | 0.00 | 0.03 | 0.03 | 77 | 1009.6 |
| 20260505063025 | 64 | 168 | 4.3 | 9.6 | 0.14 | 0.03 | 0.03 | 82 | 1009.6 |
| 20260505062522 | 65 | 133 | 3.5 | 7.0 | 0.14 | 0.03 | 0.03 | 81 | 1009.6 |
| 20260505062020 | 66 | 142 | 3.5 | 7.8 | 0.05 | 0.01 | 0.01 | 76 | 1010.1 |
| 20260505061517 | 67 | 206 | 4.3 | 9.6 | 0.05 | 0.01 | 0.01 | 75 | 1010.4 |
| 20260505061015 | 69 | 198 | 13.0 | 14.8 | 0.00 | 0.00 | 0.00 | 70 | 1010.0 |
| 20260505060512 | 69 | 185 | 5.2 | 10.4 | 0.00 | 0.00 | 0.00 | 68 | 1010.6 |
| 20260505060008 | 69 | 181 | 4.3 | 9.6 | 0.00 | 0.00 | 0.00 | 68 | 1010.0 |
| 20260505055504 | 69 | 161 | 3.5 | 7.0 | 0.00 | 0.00 | 0.00 | 68 | 1010.4 |
| 20260505055001 | 68 | 14 | 1.7 | 4.3 | 0.00 | 0.00 | 0.00 | 68 | 1010.5 |
| 20260505054458 | 68 | 179 | 6.1 | 11.3 | 0.00 | 0.00 | 0.00 | 69 | 1010.5 |
| 20260505053956 | 68 | 181 | 5.2 | 9.6 | 0.00 | 0.00 | 0.00 | 71 | 1010.5 |
| 20260505053453 | 68 | 167 | 7.8 | 11.3 | 0.00 | 0.00 | 0.00 | 70 | 1010.5 |
| 20260505052949 | 68 | 188 | 7.8 | 8.7 | 0.00 | 0.00 | 0.00 | 69 | 1010.5 |
| 20260505052447 | 68 | 174 | 6.1 | 7.8 | 0.00 | 0.00 | 0.00 | 69 | 1010.4 |
| 20260505051944 | 68 | 157 | 7.8 | 9.6 | 0.00 | 0.00 | 0.00 | 70 | 1010.4 |
| 20260505051440 | 68 | 195 | 5.2 | 12.2 | 0.00 | 0.00 | 0.00 | 70 | 1010.4 |
| 20260505050939 | 67 | 165 | 7.8 | 11.3 | 0.00 | 0.00 | 0.00 | 70 | 1010.5 |
| 20260505050437 | 67 | 156 | 7.8 | 10.4 | 0.00 | 0.00 | 0.00 | 71 | 1010.5 |
| 20260505041405 | 66 | 224 | 3.5 | 6.1 | 0.00 | 0.00 | 0.00 | 73 | 1011.5 |
| 20260505040901 | 66 | 258 | 1.7 | 3.5 | 0.00 | 0.00 | 0.00 | 74 | 1011.3 |
| 20260505040359 | 66 | 195 | 1.7 | 3.5 | 0.00 | 0.00 | 0.00 | 74 | 1011.3 |
| 20260505035855 | 66 | 215 | 2.6 | 3.5 | 0.00 | 0.00 | 0.00 | 73 | 1011.2 |
| 20260505035351 | 66 | 203 | 2.6 | 4.3 | 0.00 | 0.00 | 0.00 | 73 | 1011.5 |
| 20260505034849 | 66 | 215 | 2.6 | 6.1 | 0.00 | 0.00 | 0.00 | 73 | 1011.5 |
| 20260505034345 | 67 | 206 | 3.5 | 6.1 | 0.00 | 0.00 | 0.00 | 73 | 1011.4 |
| 20260505033842 | 67 | 184 | 4.3 | 6.1 | 0.00 | 0.00 | 0.00 | 72 | 1011.5 |
| 20260505033339 | 66 | 180 | 3.5 | 4.3 | 0.00 | 0.00 | 0.00 | 73 | 1011.5 |
| 20260505032837 | 67 | 180 | 2.6 | 4.3 | 0.00 | 0.00 | 0.00 | 72 | 1011.6 |
| 20260505032334 | 67 | 180 | 2.6 | 3.5 | 0.00 | 0.00 | 0.00 | 72 | 1011.7 |
| 20260505031831 | 67 | 157 | 1.7 | 3.5 | 0.00 | 0.00 | 0.00 | 73 | 1011.7 |
| 20260505031327 | 67 | 182 | 2.6 | 4.3 | 0.00 | 0.00 | 0.00 | 73 | 1011.7 |
| 20260505030825 | 67 | 145 | 2.6 | 4.3 | 0.00 | 0.00 | 0.00 | 72 | 1011.7 |
| 20260505030321 | 67 | 174 | 4.3 | 4.3 | 0.00 | 0.00 | 0.00 | 72 | 1011.9 |
| 20260505025816 | 67 | 183 | 2.6 | 3.5 | 0.00 | 0.00 | 0.00 | 72 | 1011.9 |
| 20260505025314 | 68 | 156 | 2.6 | 3.5 | 0.00 | 0.00 | 0.00 | 71 | 1011.9 |
| 20260505024812 | 68 | 174 | 2.6 | 4.3 | 0.00 | 0.00 | 0.00 | 72 | 1011.9 |
| 20260505024310 | 68 | 190 | 3.5 | 4.3 | 0.00 | 0.00 | 0.00 | 71 | 1011.7 |
| 20260505023807 | 68 | 193 | 2.6 | 4.3 | 0.00 | 0.00 | 0.00 | 71 | 1011.7 |
| 20260505023303 | 68 | 176 | 2.6 | 7.8 | 0.00 | 0.00 | 0.00 | 71 | 1011.6 |
| 20260505022801 | 68 | 184 | 3.5 | 6.1 | 0.00 | 0.00 | 0.00 | 71 | 1011.7 |
| 20260505022258 | 68 | 206 | 3.5 | 8.7 | 0.00 | 0.00 | 0.00 | 70 | 1011.5 |
| 20260505021755 | 68 | 186 | 3.5 | 6.1 | 0.00 | 0.00 | 0.00 | 71 | 1011.3 |
| 20260505021251 | 68 | 186 | 4.3 | 6.1 | 0.00 | 0.00 | 0.00 | 70 | 1011.2 |
| 20260505020747 | 68 | 197 | 2.6 | 7.0 | 0.00 | 0.00 | 0.00 | 70 | 1011.2 |
| 20260505020242 | 68 | 184 | 4.3 | 6.1 | 0.00 | 0.00 | 0.00 | 70 | 1011.1 |
| 20260505015740 | 68 | 190 | 3.5 | 6.1 | 0.00 | 0.00 | 0.00 | 70 | 1011.3 |
| 20260505015237 | 69 | 197 | 3.5 | 7.8 | 0.00 | 0.00 | 0.00 | 69 | 1011.3 |
| 20260505014734 | 69 | 189 | 3.5 | 4.3 | 0.00 | 0.00 | 0.00 | 69 | 1011.2 |
| 20260505014231 | 69 | 225 | 1.7 | 4.3 | 0.00 | 0.00 | 0.00 | 68 | 1011.4 |
| 20260505013728 | 69 | 199 | 2.6 | 5.2 | 0.00 | 0.00 | 0.00 | 68 | 1011.0 |
| 20260505013225 | 69 | 191 | 5.2 | 7.0 | 0.00 | 0.00 | 0.00 | 67 | 1011.0 |
| 20260505012723 | 69 | 189 | 2.6 | 6.1 | 0.00 | 0.00 | 0.00 | 68 | 1010.9 |
| 20260505012220 | 69 | 211 | 4.3 | 7.8 | 0.00 | 0.00 | 0.00 | 67 | 1010.6 |
| 20260505011716 | 70 | 190 | 5.2 | 8.7 | 0.00 | 0.00 | 0.00 | 67 | 1010.7 |
| 20260505011213 | 70 | 208 | 1.7 | 7.8 | 0.00 | 0.00 | 0.00 | 67 | 1010.5 |
| 20260505010708 | 70 | 189 | 7.8 | 7.8 | 0.00 | 0.00 | 0.00 | 66 | 1010.6 |
| 20260505010205 | 70 | 193 | 4.3 | 9.6 | 0.00 | 0.00 | 0.00 | 66 | 1010.6 |
| 20260505005701 | 70 | 174 | 4.3 | 7.0 | 0.00 | 0.00 | 0.00 | 66 | 1010.4 |
| 20260505005159 | 70 | 185 | 1.7 | 5.2 | 0.00 | 0.00 | 0.00 | 66 | 1010.7 |
| 20260505004656 | 70 | 172 | 2.6 | 4.3 | 0.00 | 0.00 | 0.00 | 66 | 1010.4 |
| 20260505004152 | 71 | 173 | 3.5 | 6.1 | 0.00 | 0.00 | 0.00 | 64 | 1010.4 |
| 20260505003649 | 71 | 180 | 6.1 | 7.0 | 0.00 | 0.00 | 0.00 | 63 | 1010.4 |
| 20260505003147 | 71 | 175 | 2.6 | 6.1 | 0.00 | 0.00 | 0.00 | 63 | 1010.6 |
| 20260505002643 | 72 | 174 | 4.3 | 7.0 | 0.00 | 0.00 | 0.00 | 62 | 1010.4 |
| 20260505002141 | 72 | 185 | 6.1 | 10.4 | 0.00 | 0.00 | 0.00 | 62 | 1010.3 |
| 20260505001638 | 72 | 180 | 5.2 | 10.4 | 0.00 | 0.00 | 0.00 | 61 | 1010.3 |
| 20260505001136 | 72 | 204 | 13.9 | 13.9 | 0.00 | 0.00 | 0.00 | 61 | 1010.5 |
| 20260505000632 | 72 | 191 | 3.5 | 9.6 | 0.00 | 0.00 | 0.00 | 61 | 1010.6 |
| 20260505000131 | 73 | 180 | 7.8 | 12.2 | 0.00 | 0.00 | 0.00 | 59 | 1010.6 |
| 20260504235626 | 73 | 177 | 4.3 | 13.9 | 0.00 | 0.00 | 0.00 | 60 | 1010.6 |
| 20260504235123 | 73 | 177 | 7.8 | 9.6 | 0.00 | 0.00 | 0.00 | 60 | 1010.6 |
| 20260504234620 | 73 | 160 | 6.1 | 14.8 | 0.00 | 0.00 | 0.00 | 60 | 1010.4 |
| 20260504234118 | 73 | 171 | 4.3 | 7.8 | 0.00 | 0.00 | 0.00 | 60 | 1010.6 |
| 20260504233613 | 73 | 192 | 11.3 | 14.8 | 0.00 | 0.00 | 0.00 | 59 | 1010.8 |
| 20260504233109 | 73 | 171 | 6.1 | 20.0 | 0.00 | 0.00 | 0.00 | 59 | 1010.5 |
| 20260504232607 | 73 | 194 | 5.2 | 10.4 | 0.00 | 0.00 | 0.00 | 58 | 1010.5 |
| 20260504232104 | 74 | 188 | 6.1 | 15.6 | 0.00 | 0.00 | 0.00 | 57 | 1010.7 |
| 20260504231600 | 74 | 191 | 13.9 | 13.9 | 0.00 | 0.00 | 0.00 | 56 | 1010.8 |
| 20260504231056 | 74 | 205 | 6.1 | 17.4 | 0.00 | 0.00 | 0.00 | 57 | 1010.5 |
| 20260504230553 | 74 | 199 | 8.7 | 18.2 | 0.00 | 0.00 | 0.00 | 56 | 1010.5 |
| 20260504230052 | 75 | 174 | 13.0 | 16.5 | 0.00 | 0.00 | 0.00 | 56 | 1010.7 |
| 20260504225549 | 75 | 164 | 13.9 | 18.2 | 0.00 | 0.00 | 0.00 | 56 | 1010.8 |
| 20260504225046 | 75 | 173 | 11.3 | 20.0 | 0.00 | 0.00 | 0.00 | 56 | 1010.6 |
| 20260504224543 | 75 | 210 | 12.2 | 20.0 | 0.00 | 0.00 | 0.00 | 55 | 1010.4 |
| 20260504224040 | 76 | 187 | 7.0 | 14.8 | 0.00 | 0.00 | 0.00 | 55 | 1010.5 |
| 20260504223537 | 75 | 182 | 13.9 | 20.9 | 0.00 | 0.00 | 0.00 | 55 | 1010.4 |
| 20260504223032 | 76 | 200 | 11.3 | 17.4 | 0.00 | 0.00 | 0.00 | 54 | 1010.5 |
| 20260504222529 | 76 | 204 | 7.8 | 21.7 | 0.00 | 0.00 | 0.00 | 53 | 1010.5 |
| 20260504222027 | 76 | 198 | 8.7 | 20.0 | 0.00 | 0.00 | 0.00 | 53 | 1010.5 |
| 20260504221524 | 76 | 208 | 13.9 | 19.1 | 0.00 | 0.00 | 0.00 | 53 | 1010.5 |
| 20260504221021 | 76 | 197 | 12.2 | 21.7 | 0.00 | 0.00 | 0.00 | 53 | 1010.5 |
| 20260504220517 | 76 | 199 | 13.9 | 23.5 | 0.00 | 0.00 | 0.00 | 52 | 1010.5 |
| 20260504220014 | 76 | 195 | 19.1 | 19.1 | 0.00 | 0.00 | 0.00 | 54 | 1010.4 |
| 20260504215510 | 76 | 172 | 8.7 | 21.7 | 0.00 | 0.00 | 0.00 | 53 | 1010.5 |
| 20260504215008 | 77 | 185 | 11.3 | 18.2 | 0.00 | 0.00 | 0.00 | 53 | 1010.7 |
| 20260504214504 | 77 | 176 | 9.6 | 16.5 | 0.00 | 0.00 | 0.00 | 52 | 1010.9 |
| 20260504214000 | 77 | 171 | 10.4 | 16.5 | 0.00 | 0.00 | 0.00 | 53 | 1011.0 |
| 20260504213456 | 77 | 161 | 12.2 | 18.2 | 0.00 | 0.00 | 0.00 | 54 | 1010.8 |
| 20260504212954 | 77 | 165 | 9.6 | 14.8 | 0.00 | 0.00 | 0.00 | 54 | 1010.8 |
| 20260504212450 | 77 | 174 | 17.4 | 19.1 | 0.00 | 0.00 | 0.00 | 53 | 1011.0 |
| 20260504211948 | 76 | 164 | 13.0 | 19.1 | 0.00 | 0.00 | 0.00 | 54 | 1011.2 |
| 20260504211444 | 76 | 188 | 10.4 | 22.6 | 0.00 | 0.00 | 0.00 | 53 | 1011.1 |
| 20260504210942 | 77 | 201 | 13.9 | 22.6 | 0.00 | 0.00 | 0.00 | 52 | 1011.2 |
| 20260504210438 | 77 | 189 | 12.2 | 20.9 | 0.00 | 0.00 | 0.00 | 52 | 1011.4 |
| 20260504205935 | 76 | 180 | 11.3 | 20.0 | 0.00 | 0.00 | 0.00 | 54 | 1011.2 |
| 20260504205433 | 77 | 184 | 14.8 | 20.9 | 0.00 | 0.00 | 0.00 | 53 | 1011.5 |
| 20260504204931 | 77 | 190 | 7.8 | 15.6 | 0.00 | 0.00 | 0.00 | 52 | 1011.7 |
| 20260504204429 | 76 | 203 | 13.9 | 21.7 | 0.00 | 0.00 | 0.00 | 51 | 1011.4 |
| 20260504203928 | 77 | 208 | 13.9 | 21.7 | 0.00 | 0.00 | 0.00 | 51 | 1011.7 |
| 20260504203425 | 77 | 209 | 10.4 | 19.1 | 0.00 | 0.00 | 0.00 | 52 | 1011.9 |
| 20260504202921 | 77 | 197 | 12.2 | 16.5 | 0.00 | 0.00 | 0.00 | 52 | 1011.7 |
| 20260504202418 | 77 | 192 | 16.5 | 20.0 | 0.00 | 0.00 | 0.00 | 51 | 1012.0 |
| 20260504201914 | 77 | 214 | 12.2 | 19.1 | 0.00 | 0.00 | 0.00 | 51 | 1012.2 |
| 20260504201412 | 77 | 193 | 11.3 | 16.5 | 0.00 | 0.00 | 0.00 | 51 | 1012.3 |
| 20260504200909 | 77 | 246 | 24.3 | 27.8 | 0.00 | 0.00 | 0.00 | 51 | 1012.1 |
| 20260504200406 | 76 | 206 | 7.8 | 17.4 | 0.00 | 0.00 | 0.00 | 52 | 1012.3 |
| 20260504195903 | 77 | 173 | 8.7 | 20.0 | 0.00 | 0.00 | 0.00 | 51 | 1012.3 |
| 20260504195358 | 76 | 186 | 20.9 | 24.3 | 0.00 | 0.00 | 0.00 | 52 | 1012.3 |
| 20260504194855 | 77 | 178 | 19.1 | 23.5 | 0.00 | 0.00 | 0.00 | 51 | 1012.6 |
| 20260504194351 | 77 | 193 | 7.0 | 21.7 | 0.00 | 0.00 | 0.00 | 51 | 1012.6 |
| 20260504193847 | 76 | 186 | 13.0 | 26.1 | 0.00 | 0.00 | 0.00 | 51 | 1012.6 |
| 20260504193344 | 76 | 205 | 9.6 | 17.4 | 0.00 | 0.00 | 0.00 | 51 | 1012.7 |
| 20260504192843 | 77 | 194 | 9.6 | 20.0 | 0.00 | 0.00 | 0.00 | 51 | 1012.7 |
| 20260504192340 | 77 | 210 | 15.6 | 23.5 | 0.00 | 0.00 | 0.00 | 51 | 1012.8 |
| 20260504191838 | 76 | 198 | 10.4 | 19.1 | 0.00 | 0.00 | 0.00 | 52 | 1012.9 |
| 20260504191336 | 76 | 215 | 14.8 | 23.5 | 0.00 | 0.00 | 0.00 | 52 | 1013.2 |
| 20260504190831 | 76 | 188 | 13.0 | 18.2 | 0.00 | 0.00 | 0.00 | 53 | 1013.1 |
| 20260504190327 | 76 | 176 | 11.3 | 20.0 | 0.00 | 0.00 | 0.00 | 53 | 1012.9 |
| 20260504185824 | 75 | 191 | 10.4 | 21.7 | 0.00 | 0.00 | 0.00 | 53 | 1013.1 |
| 20260504185321 | 75 | 187 | 7.0 | 19.1 | 0.00 | 0.00 | 0.00 | 55 | 1013.0 |
| 20260504184817 | 75 | 197 | 11.3 | 23.5 | 0.00 | 0.00 | 0.00 | 56 | 1013.0 |
| 20260504184313 | 75 | 192 | 13.0 | 20.9 | 0.00 | 0.00 | 0.00 | 54 | 1013.2 |
| 20260504183809 | 74 | 194 | 13.9 | 26.9 | 0.00 | 0.00 | 0.00 | 55 | 1013.4 |
| 20260504183306 | 76 | 180 | 15.6 | 17.4 | 0.00 | 0.00 | 0.00 | 56 | 1013.3 |
| 20260504182804 | 76 | 197 | 12.2 | 17.4 | 0.00 | 0.00 | 0.00 | 53 | 1013.4 |
| 20260504182301 | 76 | 195 | 8.7 | 31.3 | 0.00 | 0.00 | 0.00 | 52 | 1013.5 |
| 20260504181759 | 76 | 186 | 13.0 | 21.7 | 0.00 | 0.00 | 0.00 | 52 | 1013.5 |
| 20260504181256 | 75 | 235 | 12.2 | 17.4 | 0.00 | 0.00 | 0.00 | 54 | 1013.5 |
| 20260504180755 | 76 | 192 | 13.0 | 20.9 | 0.00 | 0.00 | 0.00 | 53 | 1013.7 |
| 20260504180253 | 76 | 193 | 11.3 | 18.2 | 0.00 | 0.00 | 0.00 | 54 | 1013.8 |
| 20260504175750 | 76 | 201 | 20.0 | 21.7 | 0.00 | 0.00 | 0.00 | 54 | 1013.8 |
| 20260504175247 | 75 | 195 | 15.6 | 19.1 | 0.00 | 0.00 | 0.00 | 55 | 1014.0 |
| 20260504174745 | 75 | 195 | 11.3 | 17.4 | 0.00 | 0.00 | 0.00 | 55 | 1014.0 |
| 20260504174243 | 75 | 194 | 12.2 | 13.9 | 0.00 | 0.00 | 0.00 | 57 | 1014.0 |
| 20260504173739 | 74 | 172 | 9.6 | 16.5 | 0.00 | 0.00 | 0.00 | 58 | 1013.9 |
| 20260504173236 | 75 | 180 | 13.0 | 15.6 | 0.00 | 0.00 | 0.00 | 57 | 1014.1 |
| 20260504172733 | 73 | 180 | 13.0 | 18.2 | 0.00 | 0.00 | 0.00 | 57 | 1014.1 |
| 20260504172229 | 74 | 185 | 14.8 | 19.1 | 0.00 | 0.00 | 0.00 | 55 | 1014.1 |
| 20260504171725 | 74 | 179 | 8.7 | 15.6 | 0.00 | 0.00 | 0.00 | 57 | 1014.1 |
| 20260504171223 | 72 | 173 | 13.0 | 21.7 | 0.00 | 0.00 | 0.00 | 58 | 1014.0 |
| 20260504170719 | 73 | 193 | 13.9 | 20.0 | 0.00 | 0.00 | 0.00 | 58 | 1014.2 |